Time;durP1;ratioP1;P1;durP2;ratioP2;P2;SDS_P1;SDS_P2;PMS_P1;PMS_P2;Temp;Humidity;BMP_temperature;BMP_pressure;BME280_temperature;BME280_humidity;BME280_pressure;Samples;Min_cycle;Max_cycle;Signal;HPM_P1;HPM_P2
2024/02/02 00:01:27;;;;;;;2.10;0.70;;;;;;;;;;5126242;27;20582;-77
2024/02/02 00:03:57;;;;;;;2.63;0.50;;;;;;;;;;5125957;27;20041;-74
2024/02/02 00:06:27;;;;;;;1.77;0.50;;;;;;;;;;5126191;27;20074;-74
2024/02/02 00:08:59;;;;;;;6.13;0.60;;;;;;;;;;5125711;27;20043;-75
2024/02/02 00:11:32;;;;;;;3.45;0.55;;;;;;;;;;5125976;27;20054;-76
2024/02/02 00:14:04;;;;;;;3.15;0.40;;;;;;;;;;5125623;27;20047;-75
2024/02/02 00:16:35;;;;;;;4.53;0.57;;;;;;;;;;5126555;27;20861;-76
2024/02/02 00:19:05;;;;;;;8.43;4.30;;;;;;;;;;5126424;27;20086;-76
2024/02/02 00:21:36;;;;;;;4.93;0.57;;;;;;;;;;5125963;27;20051;-73
2024/02/02 00:24:07;;;;;;;1.75;0.38;;;;;;;;;;5126114;27;20070;-75
2024/02/02 00:26:37;;;;;;;0.95;0.50;;;;;;;;;;5126071;27;20050;-73
2024/02/02 00:29:09;;;;;;;5.47;0.50;;;;;;;;;;5125562;27;20043;-74
2024/02/02 00:31:41;;;;;;;0.68;0.40;;;;;;;;;;5125689;27;20607;-74
2024/02/02 00:34:12;;;;;;;5.55;0.93;;;;;;;;;;5126388;27;20047;-73
2024/02/02 00:36:42;;;;;;;4.45;0.60;;;;;;;;;;5125967;27;20845;-84
2024/02/02 00:39:12;;;;;;;12.65;0.85;;;;;;;;;;5123123;27;20070;-75
2024/02/02 00:41:42;;;;;;;2.17;0.43;;;;;;;;;;5124408;27;20737;-75
2024/02/02 00:44:15;;;;;;;3.20;0.60;;;;;;;;;;5125368;27;20047;-74
2024/02/02 00:46:45;;;;;;;7.88;0.73;;;;;;;;;;5124427;27;20054;-74
2024/02/02 00:49:15;;;;;;;1.38;0.63;;;;;;;;;;5125677;27;20047;-74
2024/02/02 00:51:46;;;;;;;1.90;0.65;;;;;;;;;;5125183;27;20050;-74
2024/02/02 00:54:16;;;;;;;3.58;0.80;;;;;;;;;;5125331;27;20038;-75
2024/02/02 00:56:48;;;;;;;3.90;0.60;;;;;;;;;;5125710;27;20043;-75
2024/02/02 00:59:19;;;;;;;3.50;0.70;;;;;;;;;;5124960;27;20043;-75
2024/02/02 01:01:49;;;;;;;1.95;0.50;;;;;;;;;;5124911;27;20047;-74
2024/02/02 01:04:21;;;;;;;2.55;0.60;;;;;;;;;;5125026;27;20047;-75
2024/02/02 01:06:52;;;;;;;3.28;0.55;;;;;;;;;;5124313;27;20062;-74
2024/02/02 01:09:22;;;;;;;4.13;0.50;;;;;;;;;;5125344;27;20474;-82
2024/02/02 01:11:53;;;;;;;2.83;0.50;;;;;;;;;;5125093;27;21137;-79
2024/02/02 01:14:25;;;;;;;6.05;0.70;;;;;;;;;;5125228;27;20043;-74
2024/02/02 01:16:56;;;;;;;4.53;0.52;;;;;;;;;;5125654;27;20047;-75
2024/02/02 01:19:27;;;;;;;1.48;0.50;;;;;;;;;;5124855;27;20047;-74
2024/02/02 01:21:58;;;;;;;0.98;0.40;;;;;;;;;;5124309;27;20043;-75
2024/02/02 01:24:30;;;;;;;6.38;0.60;;;;;;;;;;5124920;27;20059;-74
2024/02/02 01:27:02;;;;;;;1.17;0.70;;;;;;;;;;5124383;27;20414;-75
2024/02/02 01:29:33;;;;;;;2.38;0.60;;;;;;;;;;5124339;27;20058;-75
2024/02/02 01:32:04;;;;;;;1.05;0.65;;;;;;;;;;5124660;27;20047;-75
2024/02/02 01:34:35;;;;;;;1.30;0.52;;;;;;;;;;5124654;27;20497;-74
2024/02/02 01:37:07;;;;;;;3.40;0.60;;;;;;;;;;5124088;27;20050;-74
2024/02/02 01:39:37;;;;;;;3.92;0.60;;;;;;;;;;5124481;27;20039;-74
2024/02/02 01:42:07;;;;;;;4.43;0.60;;;;;;;;;;5124908;27;20051;-75
2024/02/02 01:44:38;;;;;;;5.07;0.68;;;;;;;;;;5125268;27;20039;-74
2024/02/02 01:47:09;;;;;;;2.38;0.63;;;;;;;;;;5125152;27;20093;-74
2024/02/02 01:49:41;;;;;;;5.53;0.65;;;;;;;;;;5124447;27;20047;-75
2024/02/02 01:52:12;;;;;;;3.00;0.90;;;;;;;;;;5124496;27;20152;-75
2024/02/02 01:54:41;;;;;;;1.85;0.50;;;;;;;;;;5124516;27;20200;-74
2024/02/02 01:57:13;;;;;;;6.38;0.60;;;;;;;;;;5123544;27;20035;-74
2024/02/02 01:59:44;;;;;;;2.78;0.43;;;;;;;;;;5123909;27;20039;-75
2024/02/02 02:02:15;;;;;;;1.65;0.77;;;;;;;;;;5124487;27;20055;-74
2024/02/02 02:04:45;;;;;;;1.92;0.80;;;;;;;;;;5124164;27;20054;-74
2024/02/02 02:07:16;;;;;;;5.22;0.75;;;;;;;;;;5123686;27;20035;-74
2024/02/02 02:09:47;;;;;;;3.90;0.73;;;;;;;;;;5123939;27;20647;-75
2024/02/02 02:12:17;;;;;;;1.55;0.50;;;;;;;;;;5122509;27;20043;-74
2024/02/02 02:14:48;;;;;;;5.10;0.82;;;;;;;;;;5124742;27;20042;-75
2024/02/02 02:17:19;;;;;;;0.63;0.60;;;;;;;;;;5123941;27;20047;-74
2024/02/02 02:19:50;;;;;;;5.53;0.82;;;;;;;;;;5123631;27;20046;-74
2024/02/02 02:22:21;;;;;;;3.90;0.80;;;;;;;;;;5123855;27;20047;-74
2024/02/02 02:24:51;;;;;;;1.77;0.43;;;;;;;;;;5123721;27;20039;-74
2024/02/02 02:27:21;;;;;;;1.73;0.52;;;;;;;;;;5123881;27;20043;-75
2024/02/02 02:29:54;;;;;;;3.78;0.60;;;;;;;;;;5124391;27;20054;-74
2024/02/02 02:32:25;;;;;;;1.58;0.40;;;;;;;;;;5123189;27;20043;-74
2024/02/02 02:34:56;;;;;;;4.18;0.60;;;;;;;;;;5123119;27;20043;-75
2024/02/02 02:37:27;;;;;;;3.42;0.63;;;;;;;;;;5123107;27;20058;-75
2024/02/02 02:39:58;;;;;;;0.65;0.63;;;;;;;;;;5123068;27;20039;-75
2024/02/02 02:42:29;;;;;;;1.80;0.50;;;;;;;;;;5123502;27;20054;-76
2024/02/02 02:45:00;;;;;;;1.98;0.63;;;;;;;;;;5123789;27;20050;-74
2024/02/02 02:47:31;;;;;;;7.90;1.23;;;;;;;;;;5123550;27;20058;-74
2024/02/02 02:50:06;;;;;;;3.25;0.60;;;;;;;;;;5121607;27;20054;-75
2024/02/02 02:52:37;;;;;;;5.72;0.70;;;;;;;;;;5123654;27;20047;-74
2024/02/02 02:55:07;;;;;;;4.38;0.70;;;;;;;;;;5122895;27;20512;-74
2024/02/02 02:57:37;;;;;;;1.55;0.50;;;;;;;;;;5123216;27;20520;-75
2024/02/02 03:00:09;;;;;;;4.82;1.00;;;;;;;;;;5122674;27;20397;-74
2024/02/02 03:02:40;;;;;;;2.90;0.50;;;;;;;;;;5122757;27;20055;-75
2024/02/02 03:05:10;;;;;;;4.38;0.65;;;;;;;;;;5123936;27;20055;-75
2024/02/02 03:07:40;;;;;;;1.27;0.50;;;;;;;;;;5122885;27;20043;-75
2024/02/02 03:10:10;;;;;;;2.75;0.70;;;;;;;;;;5123098;27;20058;-74
2024/02/02 03:12:40;;;;;;;4.43;0.63;;;;;;;;;;5122978;27;20051;-74
2024/02/02 03:15:11;;;;;;;4.20;0.88;;;;;;;;;;5122622;27;20054;-74
2024/02/02 03:17:43;;;;;;;3.50;0.88;;;;;;;;;;5122851;27;20053;-74
2024/02/02 03:20:13;;;;;;;3.63;1.00;;;;;;;;;;5123075;28;20050;-74
2024/02/02 03:22:44;;;;;;;1.88;0.63;;;;;;;;;;5123187;27;20486;-74
2024/02/02 03:25:16;;;;;;;2.15;0.63;;;;;;;;;;5120758;27;20505;-74
2024/02/02 03:27:47;;;;;;;1.95;0.85;;;;;;;;;;5123314;27;20047;-75
2024/02/02 03:30:17;;;;;;;2.03;1.20;;;;;;;;;;5123043;28;20039;-75
2024/02/02 03:32:48;;;;;;;1.00;0.63;;;;;;;;;;5123313;27;20050;-74
2024/02/02 03:35:20;;;;;;;2.55;0.95;;;;;;;;;;5123109;28;20065;-74
2024/02/02 03:37:52;;;;;;;2.40;0.90;;;;;;;;;;5122426;27;20058;-74
2024/02/02 03:40:22;;;;;;;2.15;0.70;;;;;;;;;;5122809;28;20047;-75
2024/02/02 03:42:52;;;;;;;2.33;0.90;;;;;;;;;;5122379;27;20066;-74
2024/02/02 03:45:23;;;;;;;1.58;0.50;;;;;;;;;;5122461;28;20058;-74
2024/02/02 03:47:54;;;;;;;6.93;0.70;;;;;;;;;;5122338;27;20035;-74
2024/02/02 03:50:25;;;;;;;1.15;1.00;;;;;;;;;;5122408;27;20409;-74
2024/02/02 03:52:56;;;;;;;0.88;0.60;;;;;;;;;;5121182;27;20494;-74
2024/02/02 03:55:26;;;;;;;3.03;0.80;;;;;;;;;;5122957;28;20526;-74
2024/02/02 03:57:59;;;;;;;0.70;0.60;;;;;;;;;;5122715;27;20809;-74
2024/02/02 04:00:29;;;;;;;7.57;1.00;;;;;;;;;;5122156;27;20055;-76
2024/02/02 04:03:00;;;;;;;0.60;0.60;;;;;;;;;;5122087;27;20051;-75
2024/02/02 04:05:31;;;;;;;2.08;0.70;;;;;;;;;;5122633;28;20054;-75
2024/02/02 04:08:02;;;;;;;0.98;0.88;;;;;;;;;;5120407;28;20062;-74
2024/02/02 04:10:32;;;;;;;2.40;0.90;;;;;;;;;;5122957;28;20039;-75
2024/02/02 04:13:03;;;;;;;4.60;0.98;;;;;;;;;;5122203;27;20387;-75
2024/02/02 04:15:33;;;;;;;4.68;0.75;;;;;;;;;;5122623;27;20880;-74
2024/02/02 04:18:04;;;;;;;2.28;0.80;;;;;;;;;;5120108;28;20417;-75
2024/02/02 04:20:34;;;;;;;1.08;0.90;;;;;;;;;;5124393;27;20077;-74
2024/02/02 04:23:07;;;;;;;4.53;1.10;;;;;;;;;;5125588;27;20405;-74
2024/02/02 04:25:37;;;;;;;6.18;1.08;;;;;;;;;;5125416;27;20417;-74
2024/02/02 04:28:08;;;;;;;2.13;0.70;;;;;;;;;;5126028;27;20046;-74
2024/02/02 04:30:39;;;;;;;2.13;0.70;;;;;;;;;;5125806;27;20054;-75
2024/02/02 04:33:10;;;;;;;1.52;0.70;;;;;;;;;;5125944;27;20043;-74
2024/02/02 04:35:41;;;;;;;1.55;0.80;;;;;;;;;;5125364;27;20043;-74
2024/02/02 04:38:11;;;;;;;6.38;1.08;;;;;;;;;;5125006;27;20042;-75
2024/02/02 04:40:42;;;;;;;0.65;0.57;;;;;;;;;;5126189;27;20035;-74
2024/02/02 04:43:13;;;;;;;5.68;1.35;;;;;;;;;;5125669;27;20418;-74
2024/02/02 04:45:43;;;;;;;2.13;0.68;;;;;;;;;;5125912;27;20413;-74
2024/02/02 04:48:14;;;;;;;1.40;0.93;;;;;;;;;;5125739;27;20051;-74
2024/02/02 04:50:48;;;;;;;5.80;0.88;;;;;;;;;;5125186;27;20105;-74
2024/02/02 04:53:19;;;;;;;7.90;0.98;;;;;;;;;;5125262;27;20517;-74
2024/02/02 04:55:49;;;;;;;4.57;0.95;;;;;;;;;;5125811;27;20035;-74
2024/02/02 04:58:22;;;;;;;0.55;0.55;;;;;;;;;;5124522;27;20039;-74
2024/02/02 05:00:52;;;;;;;3.92;1.20;;;;;;;;;;5125826;27;20417;-74
2024/02/02 05:03:23;;;;;;;0.75;0.50;;;;;;;;;;5124830;27;20051;-75
2024/02/02 05:05:54;;;;;;;2.38;0.73;;;;;;;;;;5125200;27;20055;-75
2024/02/02 05:08:24;;;;;;;3.10;1.13;;;;;;;;;;5125055;27;20047;-75
2024/02/02 05:10:55;;;;;;;3.70;0.90;;;;;;;;;;5125243;27;20054;-74
2024/02/02 05:13:25;;;;;;;4.10;1.00;;;;;;;;;;5125008;27;20425;-74
2024/02/02 05:15:56;;;;;;;5.43;0.93;;;;;;;;;;5124981;27;20047;-73
2024/02/02 05:18:27;;;;;;;1.55;0.80;;;;;;;;;;5125187;27;20062;-74
2024/02/02 05:20:58;;;;;;;1.42;0.60;;;;;;;;;;5124996;27;20047;-74
2024/02/02 05:23:30;;;;;;;0.50;0.50;;;;;;;;;;5125584;27;20050;-74
2024/02/02 05:26:00;;;;;;;2.25;0.88;;;;;;;;;;5124460;27;20039;-74
2024/02/02 05:28:30;;;;;;;0.90;0.57;;;;;;;;;;5123439;27;20051;-73
2024/02/02 05:31:02;;;;;;;2.05;0.63;;;;;;;;;;5123698;27;20054;-73
2024/02/02 05:33:33;;;;;;;1.88;0.70;;;;;;;;;;5123024;27;20050;-73
2024/02/02 05:36:05;;;;;;;0.77;0.50;;;;;;;;;;5124641;27;20054;-73
2024/02/02 05:38:37;;;;;;;3.00;0.60;;;;;;;;;;5125720;27;20050;-74
2024/02/02 05:41:08;;;;;;;2.60;0.88;;;;;;;;;;5125701;27;20055;-73
2024/02/02 05:43:40;;;;;;;2.80;0.90;;;;;;;;;;5124719;27;20050;-73
2024/02/02 05:46:12;;;;;;;2.03;1.00;;;;;;;;;;5124250;27;20043;-75
2024/02/02 05:48:42;;;;;;;2.65;0.80;;;;;;;;;;5124138;27;20512;-74
2024/02/02 05:51:14;;;;;;;2.70;0.70;;;;;;;;;;5124043;27;20043;-74
2024/02/02 05:53:46;;;;;;;2.70;1.10;;;;;;;;;;5123938;27;20043;-73
2024/02/02 05:56:17;;;;;;;1.83;0.75;;;;;;;;;;5124594;27;20058;-74
2024/02/02 05:58:47;;;;;;;4.32;0.70;;;;;;;;;;5124875;27;20627;-74
2024/02/02 06:01:17;;;;;;;0.85;0.68;;;;;;;;;;5123893;27;20051;-73
2024/02/02 06:03:48;;;;;;;4.75;1.17;;;;;;;;;;5122944;27;20059;-74
2024/02/02 06:06:20;;;;;;;1.33;0.70;;;;;;;;;;5123580;27;20054;-74
2024/02/02 06:08:50;;;;;;;4.47;1.00;;;;;;;;;;5124416;27;20627;-73
2024/02/02 06:11:21;;;;;;;5.78;1.10;;;;;;;;;;5124203;27;20057;-74
2024/02/02 06:13:55;;;;;;;1.67;0.90;;;;;;;;;;5124736;27;20066;-74
2024/02/02 06:16:26;;;;;;;5.75;1.30;;;;;;;;;;5124044;27;20054;-73
2024/02/02 06:18:57;;;;;;;3.15;0.85;;;;;;;;;;5123794;27;20528;-73
2024/02/02 06:21:27;;;;;;;6.43;1.15;;;;;;;;;;5123329;27;20051;-74
2024/02/02 06:23:57;;;;;;;2.63;1.13;;;;;;;;;;5123856;27;20591;-74
2024/02/02 06:26:29;;;;;;;2.88;0.85;;;;;;;;;;5123413;27;20054;-74
2024/02/02 06:29:00;;;;;;;1.23;0.90;;;;;;;;;;5124006;27;20049;-74
2024/02/02 06:31:30;;;;;;;3.28;1.20;;;;;;;;;;5123596;27;20043;-74
2024/02/02 06:34:01;;;;;;;2.03;1.30;;;;;;;;;;5123303;27;20054;-73
2024/02/02 06:36:33;;;;;;;2.88;1.05;;;;;;;;;;5123462;27;20054;-74
2024/02/02 06:39:05;;;;;;;4.10;1.67;;;;;;;;;;5123539;27;20054;-74
2024/02/02 06:41:35;;;;;;;1.85;1.20;;;;;;;;;;5123170;27;20055;-74
2024/02/02 06:44:05;;;;;;;3.10;1.20;;;;;;;;;;5123111;27;20053;-74
2024/02/02 06:46:35;;;;;;;4.18;1.30;;;;;;;;;;5122918;27;20517;-74
2024/02/02 06:49:06;;;;;;;1.55;1.00;;;;;;;;;;5123782;27;20043;-74
2024/02/02 06:51:38;;;;;;;3.13;0.98;;;;;;;;;;5123425;27;20485;-74
2024/02/02 06:54:08;;;;;;;1.95;0.98;;;;;;;;;;5122938;27;20062;-73
2024/02/02 06:56:46;;;;;;;3.65;0.88;;;;;;;;;;5123264;27;20047;-74
2024/02/02 06:59:18;;;;;;;1.10;1.00;;;;;;;;;;5123310;27;20036;-74
2024/02/02 07:01:49;;;;;;;3.00;1.50;;;;;;;;;;5123209;27;20619;-73
2024/02/02 07:04:19;;;;;;;4.63;1.50;;;;;;;;;;5122709;27;20383;-74
2024/02/02 07:06:50;;;;;;;4.60;1.20;;;;;;;;;;5123182;27;20043;-74
2024/02/02 07:09:26;;;;;;;3.55;1.10;;;;;;;;;;5122982;27;20502;-73
2024/02/02 07:12:06;;;;;;;2.67;1.60;;;;;;;;;;5122432;27;20066;-73
2024/02/02 07:14:50;;;;;;;1.90;1.10;;;;;;;;;;5122946;28;20039;-74
2024/02/02 07:17:37;;;;;;;1.42;1.20;;;;;;;;;;5123412;27;20043;-74
2024/02/02 07:20:19;;;;;;;2.97;1.17;;;;;;;;;;5122965;28;20043;-74
2024/02/02 07:22:55;;;;;;;1.58;1.17;;;;;;;;;;5122460;28;20047;-74
2024/02/02 07:25:26;;;;;;;1.40;1.05;;;;;;;;;;5122590;27;20054;-73
2024/02/02 07:28:06;;;;;;;1.17;1.10;;;;;;;;;;5121564;27;20501;-74
2024/02/02 07:30:47;;;;;;;1.75;1.20;;;;;;;;;;5123110;28;20051;-74
2024/02/02 07:33:27;;;;;;;3.60;1.00;;;;;;;;;;5122319;27;20501;-73
2024/02/02 07:35:59;;;;;;;7.32;1.42;;;;;;;;;;5123560;27;20047;-73
2024/02/02 07:38:38;;;;;;;1.85;1.15;;;;;;;;;;5123106;28;20043;-73
2024/02/02 07:41:12;;;;;;;4.50;1.20;;;;;;;;;;5122123;28;20043;-73
2024/02/02 07:43:46;;;;;;;4.35;0.98;;;;;;;;;;5122382;28;20054;-73
2024/02/02 07:46:17;;;;;;;3.72;1.52;;;;;;;;;;5122251;28;20047;-74
2024/02/02 07:48:48;;;;;;;1.40;1.00;;;;;;;;;;5122521;28;20043;-74
2024/02/02 07:51:22;;;;;;;3.70;1.25;;;;;;;;;;5122407;28;20043;-74
2024/02/02 07:53:52;;;;;;;4.43;1.15;;;;;;;;;;5122207;27;20043;-73
2024/02/02 07:56:24;;;;;;;3.00;1.23;;;;;;;;;;5126019;27;20055;-74
2024/02/02 07:58:58;;;;;;;1.75;1.05;;;;;;;;;;5126452;27;20514;-73
2024/02/02 08:01:32;;;;;;;2.17;0.98;;;;;;;;;;5126276;27;20055;-73
2024/02/02 08:04:03;;;;;;;3.55;0.90;;;;;;;;;;5126371;27;20490;-74
2024/02/02 08:06:34;;;;;;;2.60;1.10;;;;;;;;;;5126809;27;20047;-74
2024/02/02 08:09:06;;;;;;;2.17;1.00;;;;;;;;;;5126853;27;20035;-73
2024/02/02 08:11:40;;;;;;;2.60;0.80;;;;;;;;;;5126791;27;20070;-74
2024/02/02 08:14:11;;;;;;;1.52;0.77;;;;;;;;;;5126591;27;20043;-73
2024/02/02 08:16:42;;;;;;;4.85;1.10;;;;;;;;;;5126687;27;20084;-74
2024/02/02 08:19:12;;;;;;;3.70;0.85;;;;;;;;;;5125879;27;20047;-73
2024/02/02 08:21:44;;;;;;;2.53;1.20;;;;;;;;;;5126096;27;20080;-74
2024/02/02 08:24:15;;;;;;;2.38;0.90;;;;;;;;;;5125887;27;20051;-74
2024/02/02 08:26:47;;;;;;;1.83;1.05;;;;;;;;;;5126024;27;20046;-73
2024/02/02 08:29:17;;;;;;;1.48;0.90;;;;;;;;;;5125721;27;20043;-73
2024/02/02 08:31:48;;;;;;;1.92;1.10;;;;;;;;;;5125922;27;20069;-73
2024/02/02 08:34:20;;;;;;;10.57;1.40;;;;;;;;;;5125668;27;21174;-74
2024/02/02 08:36:50;;;;;;;4.05;0.90;;;;;;;;;;5125753;27;20043;-74
2024/02/02 08:39:20;;;;;;;2.10;1.10;;;;;;;;;;5123709;27;20047;-74
2024/02/02 08:41:53;;;;;;;6.70;1.17;;;;;;;;;;5125193;27;20054;-73
2024/02/02 08:44:30;;;;;;;6.13;1.30;;;;;;;;;;5125683;27;20051;-74
2024/02/02 08:47:01;;;;;;;10.10;1.00;;;;;;;;;;5125296;27;20039;-74
2024/02/02 08:49:55;;;;;;;7.38;0.82;;;;;;;;;;5124972;27;20046;-73
2024/02/02 08:52:34;;;;;;;1.48;1.10;;;;;;;;;;5125561;27;20039;-74
2024/02/02 08:55:29;;;;;;;2.70;1.25;;;;;;;;;;5125638;27;20039;-74
2024/02/02 08:58:15;;;;;;;3.05;1.65;;;;;;;;;;5116787;27;20051;-74
2024/02/02 09:00:49;;;;;;;3.33;0.93;;;;;;;;;;5125443;27;20058;-75
2024/02/02 09:03:22;;;;;;;1.60;0.90;;;;;;;;;;5125427;27;20047;-74
2024/02/02 09:05:58;;;;;;;2.00;0.98;;;;;;;;;;5124398;27;20047;-74
2024/02/02 09:08:41;;;;;;;2.90;1.00;;;;;;;;;;5124715;27;20055;-74
2024/02/02 09:11:18;;;;;;;4.70;1.27;;;;;;;;;;5124679;27;20039;-73
2024/02/02 09:14:14;;;;;;;4.68;0.90;;;;;;;;;;5124830;27;20069;-74
2024/02/02 09:16:53;;;;;;;2.08;0.90;;;;;;;;;;5124925;27;20043;-74
2024/02/02 09:19:26;;;;;;;4.88;1.00;;;;;;;;;;5124646;27;20061;-74
2024/02/02 09:22:01;;;;;;;3.85;1.20;;;;;;;;;;5125009;27;20513;-73
2024/02/02 09:24:43;;;;;;;2.95;1.05;;;;;;;;;;5124636;27;20050;-73
2024/02/02 09:27:24;;;;;;;4.13;1.10;;;;;;;;;;5122986;27;20050;-74
2024/02/02 09:29:57;;;;;;;4.95;1.77;;;;;;;;;;5124839;27;20050;-75
2024/02/02 09:32:28;;;;;;;3.60;1.08;;;;;;;;;;5125429;27;20055;-74
2024/02/02 09:35:01;;;;;;;6.88;1.70;;;;;;;;;;5124693;27;20043;-73
2024/02/02 09:37:51;;;;;;;9.18;1.95;;;;;;;;;;5124215;27;20042;-74
2024/02/02 09:40:50;;;;;;;4.78;1.15;;;;;;;;;;5124031;27;20052;-75
2024/02/02 09:43:51;;;;;;;10.60;1.60;;;;;;;;;;5124511;27;20417;-74
2024/02/02 09:46:22;;;;;;;12.57;4.75;;;;;;;;;;5123964;27;20051;-76
2024/02/02 09:49:22;;;;;;;3.22;2.08;;;;;;;;;;5124276;27;20043;-73
2024/02/02 09:51:55;;;;;;;6.93;2.20;;;;;;;;;;5115169;27;20055;-73
2024/02/02 09:54:47;;;;;;;4.50;1.70;;;;;;;;;;5123749;27;20058;-74
2024/02/02 09:57:37;;;;;;;2.28;1.60;;;;;;;;;;5124528;27;20142;-74
2024/02/02 10:00:26;;;;;;;1.55;1.20;;;;;;;;;;5122874;27;20094;-74
2024/02/02 10:03:40;;;;;;;3.72;1.15;;;;;;;;;;5123211;27;20062;-74
2024/02/02 10:06:24;;;;;;;2.65;1.50;;;;;;;;;;5123842;27;20403;-74
2024/02/02 10:09:16;;;;;;;4.50;1.75;;;;;;;;;;5123428;27;20074;-73
2024/02/02 10:12:08;;;;;;;8.85;2.20;;;;;;;;;;5124774;27;20039;-77
2024/02/02 10:14:39;;;;;;;4.60;1.30;;;;;;;;;;5123680;27;20082;-74
2024/02/02 10:17:31;;;;;;;9.23;2.00;;;;;;;;;;5123308;27;20490;-73
2024/02/02 10:20:10;;;;;;;5.25;1.45;;;;;;;;;;5123531;27;20042;-74
2024/02/02 10:23:26;;;;;;;3.78;1.60;;;;;;;;;;5123785;27;20405;-73
2024/02/02 10:26:13;;;;;;;4.38;1.30;;;;;;;;;;5123162;27;20051;-74
2024/02/02 10:29:13;;;;;;;4.80;1.33;;;;;;;;;;5123450;27;20050;-74
2024/02/02 10:32:15;;;;;;;4.47;1.27;;;;;;;;;;5083786;27;20071;-74
2024/02/02 10:35:09;;;;;;;2.83;1.40;;;;;;;;;;5118978;27;20063;-72
2024/02/02 10:37:40;;;;;;;8.27;1.88;;;;;;;;;;5123299;27;20498;-79
2024/02/02 10:40:28;;;;;;;8.10;2.03;;;;;;;;;;5124511;27;20054;-74
2024/02/02 10:43:21;;;;;;;5.65;2.35;;;;;;;;;;5123468;27;20050;-74
2024/02/02 10:46:01;;;;;;;3.90;1.73;;;;;;;;;;5100923;28;20058;-73
2024/02/02 10:48:44;;;;;;;10.40;2.65;;;;;;;;;;5103026;28;20043;-73
2024/02/02 10:51:38;;;;;;;3.97;1.08;;;;;;;;;;5101203;28;20051;-74
2024/02/02 10:54:38;;;;;;;9.55;1.02;;;;;;;;;;5072269;28;20073;-75
2024/02/02 10:57:37;;;;;;;8.68;1.13;;;;;;;;;;5102386;28;20623;-76
2024/02/02 11:00:17;;;;;;;1.67;0.73;;;;;;;;;;5102531;28;20059;-75
2024/02/02 11:03:18;;;;;;;2.88;0.80;;;;;;;;;;5102825;28;20046;-83
2024/02/02 11:06:06;;;;;;;6.32;1.15;;;;;;;;;;5102101;28;20417;-76
2024/02/02 11:08:50;;;;;;;2.45;0.70;;;;;;;;;;5102298;28;20540;-74
2024/02/02 11:11:25;;;;;;;4.43;1.00;;;;;;;;;;5102595;28;20417;-74
2024/02/02 11:14:16;;;;;;;15.70;1.30;;;;;;;;;;5102192;28;20070;-74
2024/02/02 11:16:50;;;;;;;5.85;0.95;;;;;;;;;;5102429;28;20055;-75
2024/02/02 11:19:42;;;;;;;10.90;1.50;;;;;;;;;;5102343;28;20051;-75
2024/02/02 11:22:19;;;;;;;6.22;1.92;;;;;;;;;;5101923;28;20048;-73
2024/02/02 11:25:16;;;;;;;6.07;1.52;;;;;;;;;;5102918;28;20410;-72
2024/02/02 11:28:17;;;;;;;5.53;1.95;;;;;;;;;;5102397;28;20058;-74
2024/02/02 11:31:12;;;;;;;9.55;1.10;;;;;;;;;;5105665;28;20047;-74
2024/02/02 11:34:24;;;;;;;2.95;1.08;;;;;;;;;;5104284;28;20040;-74
2024/02/02 11:37:19;;;;;;;2.45;1.02;;;;;;;;;;5105271;28;20040;-74
2024/02/02 11:40:08;;;;;;;4.28;0.95;;;;;;;;;;5105128;28;20051;-73
2024/02/02 11:42:41;;;;;;;3.92;1.20;;;;;;;;;;5105352;28;20058;-74
2024/02/02 11:45:17;;;;;;;6.65;1.67;;;;;;;;;;5105915;28;20402;-74
2024/02/02 11:48:12;;;;;;;5.07;1.40;;;;;;;;;;5106027;28;20055;-74
2024/02/02 11:50:45;;;;;;;3.70;1.15;;;;;;;;;;5075258;28;20522;-73
2024/02/02 11:53:21;;;;;;;5.82;0.70;;;;;;;;;;5104095;28;20043;-75
2024/02/02 11:55:58;;;;;;;5.38;0.80;;;;;;;;;;5105557;28;20055;-74
2024/02/02 11:58:31;;;;;;;3.20;0.60;;;;;;;;;;5106763;28;20048;-73
2024/02/02 12:01:26;;;;;;;8.23;0.80;;;;;;;;;;5106974;28;20051;-74
2024/02/02 12:04:25;;;;;;;2.63;0.95;;;;;;;;;;5105380;28;20047;-75
2024/02/02 12:07:11;;;;;;;2.45;0.60;;;;;;;;;;5105190;28;20052;-74
2024/02/02 12:10:03;;;;;;;1.80;1.35;;;;;;;;;;5105653;28;20048;-74
2024/02/02 12:12:43;;;;;;;3.15;0.68;;;;;;;;;;5103804;28;20048;-77
2024/02/02 12:15:14;;;;;;;14.00;1.00;;;;;;;;;;5105555;28;20043;-74
2024/02/02 12:17:45;;;;;;;6.20;0.60;;;;;;;;;;5105596;28;20044;-74
2024/02/02 12:20:17;;;;;;;1.92;0.73;;;;;;;;;;5105396;28;20398;-74
2024/02/02 12:22:50;;;;;;;4.22;0.70;;;;;;;;;;5105271;28;20047;-75
2024/02/02 12:25:21;;;;;;;2.40;0.82;;;;;;;;;;5105462;28;20441;-74
2024/02/02 12:27:52;;;;;;;4.20;0.50;;;;;;;;;;5105564;28;20055;-78
2024/02/02 12:30:22;;;;;;;4.72;0.70;;;;;;;;;;5105946;28;20806;-75
2024/02/02 12:32:58;;;;;;;5.88;0.98;;;;;;;;;;5105385;28;20070;-76
2024/02/02 12:35:29;;;;;;;1.08;0.50;;;;;;;;;;5105440;28;20050;-75
2024/02/02 12:38:00;;;;;;;1.90;0.45;;;;;;;;;;5104232;28;20055;-77
2024/02/02 12:40:32;;;;;;;4.20;0.60;;;;;;;;;;5102964;28;20066;-74
2024/02/02 12:43:02;;;;;;;1.33;0.60;;;;;;;;;;5103656;28;20047;-76
2024/02/02 12:45:33;;;;;;;3.55;0.93;;;;;;;;;;5104841;28;20040;-75
2024/02/02 12:48:06;;;;;;;5.18;0.63;;;;;;;;;;5104800;28;20532;-75
2024/02/02 12:50:37;;;;;;;6.80;1.00;;;;;;;;;;5104911;28;20048;-75
2024/02/02 12:53:08;;;;;;;8.18;1.10;;;;;;;;;;5102735;28;20051;-75
2024/02/02 12:55:39;;;;;;;1.35;0.50;;;;;;;;;;5104907;28;20506;-76
2024/02/02 12:58:10;;;;;;;8.73;0.82;;;;;;;;;;5104799;28;20044;-74
2024/02/02 13:00:41;;;;;;;2.70;0.70;;;;;;;;;;5103717;28;20067;-78
2024/02/02 13:03:12;;;;;;;1.92;0.80;;;;;;;;;;5105415;28;20047;-75
2024/02/02 13:05:44;;;;;;;5.30;0.98;;;;;;;;;;5105065;28;20525;-75
2024/02/02 13:08:30;;;;;;;2.95;0.50;;;;;;;;;;5104271;28;20051;-76
2024/02/02 13:11:00;;;;;;;5.25;0.75;;;;;;;;;;5104619;28;20094;-77
2024/02/02 13:13:32;;;;;;;9.88;0.90;;;;;;;;;;5104748;28;20052;-76
2024/02/02 13:16:05;;;;;;;4.25;0.60;;;;;;;;;;5104746;28;20051;-76
2024/02/02 13:18:36;;;;;;;0.65;0.45;;;;;;;;;;5104430;28;20055;-78
2024/02/02 13:21:29;;;;;;;2.60;0.82;;;;;;;;;;5104642;28;20048;-76
2024/02/02 13:24:04;;;;;;;1.75;0.60;;;;;;;;;;5104157;28;20051;-75
2024/02/02 13:26:39;;;;;;;5.57;0.60;;;;;;;;;;5104630;28;20966;-75
2024/02/02 13:29:10;;;;;;;2.70;0.60;;;;;;;;;;5104125;28;20040;-74
2024/02/02 13:31:40;;;;;;;2.67;0.63;;;;;;;;;;5102692;28;20047;-76
2024/02/02 13:34:14;;;;;;;4.97;0.80;;;;;;;;;;5104472;28;20044;-75
2024/02/02 13:36:47;;;;;;;3.63;0.80;;;;;;;;;;5104427;28;20051;-76
2024/02/02 13:39:21;;;;;;;4.85;0.88;;;;;;;;;;5104187;28;20047;-75
2024/02/02 13:41:53;;;;;;;4.82;0.60;;;;;;;;;;5103512;28;20051;-75
2024/02/02 13:44:26;;;;;;;0.82;0.60;;;;;;;;;;5101430;28;20051;-85
2024/02/02 13:46:59;;;;;;;3.58;1.27;;;;;;;;;;5103650;28;20040;-75
2024/02/02 13:49:31;;;;;;;3.47;1.00;;;;;;;;;;5101337;28;20058;-77
2024/02/02 13:52:05;;;;;;;1.13;0.50;;;;;;;;;;5103535;28;20074;-75
2024/02/02 13:54:39;;;;;;;2.80;0.45;;;;;;;;;;5103681;28;20764;-76
2024/02/02 13:57:12;;;;;;;2.20;0.60;;;;;;;;;;5103839;28;20036;-76
2024/02/02 13:59:43;;;;;;;2.15;0.65;;;;;;;;;;5103616;28;20051;-75
2024/02/02 14:02:13;;;;;;;3.33;0.73;;;;;;;;;;5103659;28;20583;-75
2024/02/02 14:04:43;;;;;;;5.45;0.77;;;;;;;;;;5103168;28;20048;-75
2024/02/02 14:07:18;;;;;;;3.00;0.68;;;;;;;;;;5101784;28;20047;-75
2024/02/02 14:10:03;;;;;;;3.38;0.47;;;;;;;;;;5103426;28;20043;-82
2024/02/02 14:12:40;;;;;;;4.25;0.70;;;;;;;;;;5103337;28;20051;-75
2024/02/02 14:15:11;;;;;;;3.38;0.65;;;;;;;;;;5103211;28;20499;-74
2024/02/02 14:17:41;;;;;;;3.40;0.60;;;;;;;;;;5103576;28;20039;-76
2024/02/02 14:20:14;;;;;;;2.95;0.60;;;;;;;;;;5103687;28;20073;-75
2024/02/02 14:22:45;;;;;;;4.82;1.13;;;;;;;;;;5103392;28;20399;-76
2024/02/02 14:25:29;;;;;;;9.10;1.20;;;;;;;;;;5103728;28;20051;-75
2024/02/02 14:28:11;;;;;;;3.22;0.70;;;;;;;;;;5103739;28;20502;-75
2024/02/02 14:30:43;;;;;;;5.05;1.00;;;;;;;;;;5102959;28;20040;-75
2024/02/02 14:33:17;;;;;;;3.03;0.80;;;;;;;;;;5103001;28;20047;-77
2024/02/02 14:35:54;;;;;;;3.47;1.00;;;;;;;;;;5102794;28;20055;-76
2024/02/02 14:38:26;;;;;;;4.13;0.85;;;;;;;;;;5101013;28;20052;-77
2024/02/02 14:40:57;;;;;;;1.42;1.20;;;;;;;;;;5102642;28;20078;-74
2024/02/02 14:43:28;;;;;;;3.08;0.93;;;;;;;;;;5102749;28;20506;-75
2024/02/02 14:45:59;;;;;;;3.08;1.40;;;;;;;;;;5102490;28;20049;-76
2024/02/02 14:48:30;;;;;;;4.18;1.35;;;;;;;;;;5102841;28;20051;-75
2024/02/02 14:51:00;;;;;;;5.43;1.63;;;;;;;;;;5102980;28;20054;-76
2024/02/02 14:53:33;;;;;;;5.88;2.33;;;;;;;;;;5102885;28;20055;-75
2024/02/02 14:56:05;;;;;;;8.38;1.80;;;;;;;;;;5102823;28;20050;-85
2024/02/02 14:58:36;;;;;;;3.53;1.77;;;;;;;;;;5101769;28;20040;-75
2024/02/02 15:01:13;;;;;;;1.95;1.08;;;;;;;;;;5103140;28;20039;-75
2024/02/02 15:03:46;;;;;;;3.80;1.42;;;;;;;;;;5102226;28;20044;-76
2024/02/02 15:06:17;;;;;;;2.95;1.30;;;;;;;;;;5102660;28;20062;-75
2024/02/02 15:08:48;;;;;;;3.47;1.40;;;;;;;;;;5102223;28;20039;-76
2024/02/02 15:11:18;;;;;;;2.92;2.20;;;;;;;;;;5102433;28;20433;-76
2024/02/02 15:13:49;;;;;;;3.38;1.90;;;;;;;;;;5102428;28;20048;-74
2024/02/02 15:16:20;;;;;;;8.02;2.00;;;;;;;;;;5102865;28;20052;-75
2024/02/02 15:18:51;;;;;;;3.05;2.00;;;;;;;;;;5102194;28;20391;-74
2024/02/02 15:21:22;;;;;;;8.35;1.80;;;;;;;;;;5102114;28;20042;-73
2024/02/02 15:23:53;;;;;;;8.02;2.03;;;;;;;;;;5102506;28;20501;-75
2024/02/02 15:26:24;;;;;;;2.83;1.90;;;;;;;;;;5102671;28;20043;-74
2024/02/02 15:28:55;;;;;;;6.20;2.13;;;;;;;;;;5102284;28;20048;-77